Time;durP1;ratioP1;P1;durP2;ratioP2;P2;SDS_P1;SDS_P2;PMS_P1;PMS_P2;Temp;Humidity;BMP_temperature;BMP_pressure;BME280_temperature;BME280_humidity;BME280_pressure;Samples;Min_cycle;Max_cycle;Signal;HPM_P1;HPM_P2
2024/01/12 00:02:14;;;;;;;18.92;8.85;;;8.90;93.60;;;;;;5012230;28;20117;-66
2024/01/12 00:04:40;;;;;;;16.35;8.65;;;;;;;;;;5013510;28;20126;-67
2024/01/12 00:07:06;;;;;;;17.67;8.38;;;;;;;;;;5012030;28;20055;-67
2024/01/12 00:09:32;;;;;;;18.50;8.52;;;;;;;;;;5013708;28;20384;-67
2024/01/12 00:11:58;;;;;;;16.80;11.50;;;;;;;;;;5013235;28;20400;-67
2024/01/12 00:14:25;;;;;;;16.25;8.75;;;;;;;;;;5012155;28;20053;-66
2024/01/12 00:16:51;;;;;;;16.75;8.05;;;;;;;;;;5013694;28;20057;-67
2024/01/12 00:19:19;;;;;;;17.25;7.93;;;8.90;91.90;;;;;;5012447;28;20054;-67
2024/01/12 00:21:45;;;;;;;14.52;8.32;;;;;;;;;;4995360;28;20056;-67
2024/01/12 00:24:11;;;;;;;16.73;9.18;;;8.90;93.50;;;;;;5011993;28;20396;-67
2024/01/12 00:26:37;;;;;;;14.80;7.40;;;;;;;;;;5012052;28;20117;-67
2024/01/12 00:29:03;;;;;;;14.02;7.85;;;;;;;;;;5012172;28;20440;-67
2024/01/12 00:31:29;;;;;;;14.25;6.97;;;;;;;;;;5011056;28;20046;-66
2024/01/12 00:33:55;;;;;;;15.65;7.13;;;;;;;;;;5044764;28;20108;-66
2024/01/12 00:36:22;;;;;;;13.40;7.10;;;;;;;;;;5013312;28;20060;-67
2024/01/12 00:38:48;;;;;;;16.83;7.35;;;;;;;;;;5011877;28;20057;-66
2024/01/12 00:41:14;;;;;;;15.02;6.25;;;;;;;;;;5011178;28;20133;-66
2024/01/12 00:43:40;;;;;;;13.15;6.75;;;;;;;;;;5045171;28;20049;-66
2024/01/12 00:46:07;;;;;;;14.63;6.97;;;;;;;;;;5011217;28;20057;-66
2024/01/12 00:48:32;;;;;;;15.05;7.60;;;8.80;93.30;;;;;;5012995;28;20132;-67
2024/01/12 00:50:58;;;;;;;13.40;6.22;;;8.90;93.40;;;;;;5012746;28;20120;-66
2024/01/12 00:53:24;;;;;;;13.35;6.43;;;9.00;93.40;;;;;;5044803;28;20042;-66
2024/01/12 00:55:50;;;;;;;12.40;6.82;;;;;;;;;;5043926;28;20108;-66
2024/01/12 00:58:16;;;;;;;14.07;6.18;;;9.10;93.40;;;;;;5011872;28;20139;-66
2024/01/12 01:00:42;;;;;;;15.02;6.55;;;;;;;;;;4979007;28;20476;-67
2024/01/12 01:03:08;;;;;;;14.23;6.82;;;;;;;;;;4995168;28;20507;-67
2024/01/12 01:05:34;;;;;;;13.68;6.00;;;9.00;93.30;;;;;;5012070;28;20054;-66
2024/01/12 01:08:00;;;;;;;13.85;6.68;;;9.00;93.30;;;;;;4995213;28;20049;-67
2024/01/12 01:10:26;;;;;;;10.70;5.70;;;;;;;;;;5011281;28;20054;-66
2024/01/12 01:12:53;;;;;;;11.80;5.80;;;;;;;;;;5013621;28;20405;-67
2024/01/12 01:15:19;;;;;;;15.70;5.97;;;;;;;;;;5016239;28;20057;-67
2024/01/12 01:17:46;;;;;;;11.00;5.97;;;;;;;;;;5015499;28;20139;-66
2024/01/12 01:20:12;;;;;;;11.82;5.45;;;;;;;;;;4998807;28;20488;-66
2024/01/12 01:22:37;;;;;;;11.88;5.30;;;9.00;93.20;;;;;;5048717;28;20049;-66
2024/01/12 01:25:04;;;;;;;12.98;5.57;;;;;;;;;;5048102;28;20373;-67
2024/01/12 01:27:30;;;;;;;14.45;5.43;;;;;;;;;;5031981;28;20053;-66
2024/01/12 01:29:56;;;;;;;10.98;5.50;;;;;;;;;;5048436;28;20084;-66
2024/01/12 01:32:22;;;;;;;10.05;4.43;;;;;;;;;;5031019;28;20046;-68
2024/01/12 01:34:48;;;;;;;12.38;5.03;;;;;;;;;;5047784;28;20046;-74
2024/01/12 01:37:14;;;;;;;10.85;5.13;;;;;;;;;;5015081;28;20052;-66
2024/01/12 01:39:41;;;;;;;9.52;4.68;;;;;;;;;;5031797;28;20045;-66
2024/01/12 01:42:07;;;;;;;8.82;4.22;;;;;;;;;;5016328;28;20125;-66
2024/01/12 01:44:33;;;;;;;9.23;4.78;;;;;;;;;;5015762;28;20118;-66
2024/01/12 01:46:59;;;;;;;10.23;4.50;;;;;;;;;;5047789;28;20053;-67
2024/01/12 01:49:26;;;;;;;9.45;3.90;;;;;;;;;;5031551;28;20081;-67
2024/01/12 01:51:52;;;;;;;13.15;4.88;;;;;;;;;;5031272;28;20050;-66
2024/01/12 01:54:19;;;;;;;11.32;4.45;;;;;;;;;;5048042;28;20059;-66
2024/01/12 01:56:45;;;;;;;10.13;4.15;;;;;;;;;;5047381;28;20466;-66
2024/01/12 01:59:11;;;;;;;8.98;4.05;;;9.20;93.30;;;;;;5047810;28;20104;-66
2024/01/12 02:01:37;;;;;;;11.02;4.22;;;;;;;;;;5014901;28;20046;-67
2024/01/12 02:04:03;;;;;;;13.10;4.60;;;;;;;;;;4998748;28;20507;-67
2024/01/12 02:06:30;;;;;;;7.35;3.45;;;;;;;;;;5006160;28;20050;-67
2024/01/12 02:08:56;;;;;;;10.77;4.18;;;;;;;;;;5025269;28;20116;-67
2024/01/12 02:11:22;;;;;;;8.07;3.67;;;9.30;91.70;;;;;;5014926;28;20046;-67
2024/01/12 02:13:48;;;;;;;8.15;3.38;;;;;;;;;;5014533;28;20049;-66
2024/01/12 02:16:15;;;;;;;9.35;3.88;;;;;;;;;;5030447;28;20056;-70
2024/01/12 02:18:41;;;;;;;9.10;3.47;;;;;;;;;;5015204;28;20103;-67
2024/01/12 02:21:08;;;;;;;9.68;3.55;;;;;;;;;;5014030;28;20128;-67
2024/01/12 02:23:34;;;;;;;10.38;3.83;;;;;;;;;;5013739;28;20136;-66
2024/01/12 02:26:00;;;;;;;9.45;3.30;;;;;;;;;;5013367;28;20053;-67
2024/01/12 02:28:26;;;;;;;9.07;3.13;;;9.20;93.20;;;;;;5014184;28;20077;-66
2024/01/12 02:30:52;;;;;;;8.32;3.28;;;;;;;;;;5030276;28;20085;-66
2024/01/12 02:33:18;;;;;;;6.38;3.28;;;;;;;;;;5014209;28;20042;-67
2024/01/12 02:35:44;;;;;;;9.65;3.47;;;;;;;;;;4994020;28;20057;-67
2024/01/12 02:38:10;;;;;;;7.78;2.80;;;9.10;93.20;;;;;;5027529;28;20069;-66
2024/01/12 02:40:36;;;;;;;8.63;3.00;;;9.10;93.20;;;;;;5008492;28;20450;-67
2024/01/12 02:43:03;;;;;;;9.15;3.20;;;;;;;;;;5015317;28;20054;-66
2024/01/12 02:45:29;;;;;;;6.65;2.90;;;;;;;;;;4996582;28;20058;-67
2024/01/12 02:47:55;;;;;;;8.00;2.97;;;;;;;;;;5013747;28;20061;-67
2024/01/12 02:50:22;;;;;;;7.55;2.78;;;;;;;;;;5013872;28;20500;-66
2024/01/12 02:52:48;;;;;;;9.65;2.88;;;;;;;;;;5046842;28;20053;-66
2024/01/12 02:55:14;;;;;;;9.00;2.90;;;9.00;93.30;;;;;;5015067;28;20043;-67
2024/01/12 02:57:40;;;;;;;9.57;3.00;;;;;;;;;;5014675;28;20061;-66
2024/01/12 03:00:06;;;;;;;7.40;2.50;;;;;;;;;;5014405;28;20046;-67
2024/01/12 03:02:32;;;;;;;6.47;3.05;;;;;;;;;;5014630;28;20135;-66
2024/01/12 03:04:59;;;;;;;6.10;2.50;;;;;;;;;;5014697;28;20169;-67
2024/01/12 03:07:25;;;;;;;7.50;3.03;;;;;;;;;;5014617;28;20079;-67
2024/01/12 03:09:51;;;;;;;5.70;2.30;;;;;;;;;;5046610;28;20117;-66
2024/01/12 03:12:17;;;;;;;7.43;2.65;;;;;;;;;;5046146;28;20129;-66
2024/01/12 03:14:43;;;;;;;8.40;3.20;;;;;;;;;;5013362;28;20041;-66
2024/01/12 03:17:10;;;;;;;9.13;3.03;;;;;;;;;;5012633;28;20124;-67
2024/01/12 03:19:36;;;;;;;6.97;2.63;;;;;;;;;;5013091;28;20046;-66
2024/01/12 03:22:02;;;;;;;5.65;2.47;;;;;;;;;;5046597;28;20057;-66
2024/01/12 03:24:28;;;;;;;6.10;2.35;;;;;;;;;;5029882;28;20057;-66
2024/01/12 03:26:54;;;;;;;5.65;2.55;;;;;;;;;;5045616;28;20461;-66
2024/01/12 03:29:20;;;;;;;6.55;2.60;;;;;;;;;;5029440;28;20129;-66
2024/01/12 03:31:47;;;;;;;8.57;2.75;;;;;;;;;;5014463;28;20084;-66
2024/01/12 03:34:13;;;;;;;5.15;2.25;;;;;;;;;;5014357;28;20049;-66
2024/01/12 03:36:39;;;;;;;7.90;2.78;;;;;;;;;;5012454;28;20053;-66
2024/01/12 03:39:05;;;;;;;6.28;2.60;;;;;;;;;;5014049;28;20061;-66
2024/01/12 03:41:31;;;;;;;5.80;2.30;;;;;;;;;;5045606;28;20040;-66
2024/01/12 03:43:57;;;;;;;5.90;2.30;;;;;;;;;;5013088;28;20062;-67
2024/01/12 03:46:23;;;;;;;5.53;2.30;;;;;;;;;;5013415;28;20058;-66
2024/01/12 03:48:49;;;;;;;5.47;2.50;;;9.10;93.30;;;;;;5013626;28;20045;-66
2024/01/12 03:51:15;;;;;;;7.05;2.33;;;9.20;93.20;;;;;;5045684;28;20045;-67
2024/01/12 03:53:40;;;;;;;7.55;2.65;;;9.30;93.30;;;;;;5029180;28;20085;-66
2024/01/12 03:56:06;;;;;;;4.32;1.95;;;9.10;93.20;;;;;;5045399;28;20057;-66
2024/01/12 03:58:32;;;;;;;5.90;2.50;;;;;;;;;;5011882;28;20081;-66
2024/01/12 04:00:59;;;;;;;5.35;1.95;;;;;;;;;;5045208;28;20041;-66
2024/01/12 04:03:24;;;;;;;6.50;2.15;;;9.10;93.30;;;;;;5012531;28;20084;-66
2024/01/12 04:05:51;;;;;;;7.45;2.35;;;;;;;;;;5013378;28;20041;-66
2024/01/12 04:08:17;;;;;;;6.57;2.25;;;;;;;;;;5012593;28;20467;-67
2024/01/12 04:10:43;;;;;;;5.72;1.92;;;;;;;;;;5045361;28;20077;-67
2024/01/12 04:13:09;;;;;;;7.68;2.28;;;;;;;;;;5044929;28;20049;-69
2024/01/12 04:15:35;;;;;;;4.10;1.83;;;;;;;;;;5012037;28;20408;-66
2024/01/12 04:18:01;;;;;;;4.53;1.83;;;;;;;;;;5044895;28;20436;-66
2024/01/12 04:20:27;;;;;;;4.78;2.08;;;;;;;;;;5012268;28;20053;-66
2024/01/12 04:22:54;;;;;;;4.70;2.22;;;;;;;;;;5012117;28;20045;-66
2024/01/12 04:25:20;;;;;;;5.15;1.88;;;;;;;;;;5013513;28;20050;-67
2024/01/12 04:27:46;;;;;;;7.15;2.03;;;;;;;;;;4995703;28;20111;-67
2024/01/12 04:30:12;;;;;;;8.73;3.53;;;9.00;93.40;;;;;;5013143;28;20137;-66
2024/01/12 04:32:38;;;;;;;6.95;2.60;;;;;;;;;;5011947;28;20050;-66
2024/01/12 04:35:05;;;;;;;6.32;2.30;;;;;;;;;;5044980;28;20096;-67
2024/01/12 04:37:30;;;;;;;4.13;1.92;;;9.10;93.40;;;;;;5012345;28;20498;-67
2024/01/12 04:39:56;;;;;;;5.10;1.80;;;9.10;93.30;;;;;;5013069;28;20034;-66
2024/01/12 04:42:22;;;;;;;7.47;2.17;;;9.10;93.30;;;;;;5045076;28;20546;-66
2024/01/12 04:44:48;;;;;;;6.35;2.20;;;;;;;;;;5028091;28;20049;-67
2024/01/12 04:47:14;;;;;;;5.28;1.95;;;;;;;;;;5043941;28;20403;-67
2024/01/12 04:49:40;;;;;;;7.28;2.20;;;;;;;;;;5012627;28;20511;-67
2024/01/12 04:52:06;;;;;;;4.30;2.05;;;9.10;93.30;;;;;;5013252;28;20156;-66
2024/01/12 04:54:32;;;;;;;6.28;2.05;;;;;;;;;;5028280;28;20042;-67
2024/01/12 04:56:58;;;;;;;4.82;2.58;;;;;;;;;;5044590;28;20128;-66
2024/01/12 04:59:24;;;;;;;5.43;1.70;;;;;;;;;;5044129;28;20050;-66
2024/01/12 05:01:50;;;;;;;3.60;1.75;;;;;;;;;;5045107;28;20425;-70
2024/01/12 05:04:16;;;;;;;4.35;2.15;;;9.00;92.60;;;;;;5011375;28;20045;-66
2024/01/12 05:06:43;;;;;;;7.32;2.03;;;;;;;;;;5028076;28;20046;-67
2024/01/12 05:09:09;;;;;;;5.95;2.42;;;;;;;;;;5027730;28;20467;-67
2024/01/12 05:11:35;;;;;;;5.85;2.08;;;;;;;;;;5011219;28;20056;-67
2024/01/12 05:14:01;;;;;;;5.50;2.20;;;;;;;;;;5028088;28;20091;-66
2024/01/12 05:16:27;;;;;;;7.53;2.15;;;;;;;;;;5044416;28;20057;-67
2024/01/12 05:18:53;;;;;;;5.10;1.80;;;9.30;93.30;;;;;;5010747;28;20388;-67
2024/01/12 05:21:19;;;;;;;6.55;1.98;;;;;;;;;;5011480;28;20108;-67
2024/01/12 05:23:45;;;;;;;5.45;2.20;;;9.20;93.00;;;;;;5044696;28;20054;-67
2024/01/12 05:26:14;;;;;;;7.10;1.90;;;;;;;;;;5044411;28;20399;-66
2024/01/12 05:28:40;;;;;;;4.95;1.83;;;;;;;;;;5027235;28;20092;-66
2024/01/12 05:31:08;;;;;;;3.70;1.80;;;9.00;91.80;;;;;;5010655;28;20082;-66
2024/01/12 05:33:35;;;;;;;5.28;1.90;;;;;;;;;;5027847;28;20131;-66
2024/01/12 05:36:02;;;;;;;5.75;1.90;;;;;;;;;;5012744;28;20455;-66
2024/01/12 05:38:28;;;;;;;6.60;2.03;;;;;;;;;;5044096;28;20062;-66
2024/01/12 05:40:54;;;;;;;4.10;1.70;;;;;;;;;;5010595;28;20046;-66
2024/01/12 05:43:20;;;;;;;6.80;2.35;;;;;;;;;;5011977;28;20042;-66
2024/01/12 05:45:46;;;;;;;4.97;2.05;;;;;;;;;;5010927;28;20054;-66
2024/01/12 05:48:12;;;;;;;4.63;1.98;;;;;;;;;;4994973;28;20050;-66
2024/01/12 05:50:38;;;;;;;6.45;2.10;;;;;;;;;;5010816;28;20042;-66
2024/01/12 05:53:05;;;;;;;5.07;2.10;;;9.30;92.00;;;;;;5043988;28;20057;-66
2024/01/12 05:55:31;;;;;;;5.20;1.80;;;;;;;;;;5010314;28;20046;-66
2024/01/12 05:57:57;;;;;;;5.20;2.22;;;;;;;;;;5044350;28;20054;-66
2024/01/12 06:00:24;;;;;;;4.25;1.70;;;;;;;;;;5015347;28;20042;-66
2024/01/12 06:02:50;;;;;;;6.85;2.20;;;;;;;;;;5021585;28;20050;-66
2024/01/12 06:05:17;;;;;;;4.70;2.00;;;;;;;;;;5016312;28;20448;-66
2024/01/12 06:07:43;;;;;;;6.90;2.40;;;;;;;;;;5029495;28;20049;-66
2024/01/12 06:10:09;;;;;;;5.97;2.25;;;;;;;;;;4982390;28;20461;-66
2024/01/12 06:12:36;;;;;;;5.40;2.00;;;;;;;;;;4981446;28;20143;-66
2024/01/12 06:15:01;;;;;;;6.25;2.33;;;9.10;93.20;;;;;;4995087;28;20092;-66
2024/01/12 06:17:28;;;;;;;5.40;1.95;;;;;;;;;;5030672;28;20487;-66
2024/01/12 06:19:54;;;;;;;5.70;2.00;;;;;;;;;;5047184;28;20085;-66
2024/01/12 06:22:20;;;;;;;6.15;1.90;;;;;;;;;;5047684;28;20088;-66
2024/01/12 06:24:46;;;;;;;4.88;2.38;;;;;;;;;;5047229;28;20461;-67
2024/01/12 06:27:12;;;;;;;5.88;2.33;;;;;;;;;;5046909;28;20069;-66
2024/01/12 06:29:38;;;;;;;7.13;2.10;;;;;;;;;;5047299;28;20056;-66
2024/01/12 06:32:05;;;;;;;7.63;2.15;;;;;;;;;;5046968;28;20136;-66
2024/01/12 06:34:31;;;;;;;6.40;2.33;;;9.10;93.30;;;;;;5030128;28;20172;-66
2024/01/12 06:36:57;;;;;;;6.43;2.20;;;;;;;;;;5030697;28;20136;-66
2024/01/12 06:39:23;;;;;;;5.15;2.03;;;;;;;;;;5014064;28;20076;-66
2024/01/12 06:41:49;;;;;;;3.92;1.75;;;;;;;;;;5029959;28;20061;-67
2024/01/12 06:44:16;;;;;;;6.78;2.45;;;;;;;;;;4997642;28;20507;-67
2024/01/12 06:46:45;;;;;;;5.85;2.30;;;;;;;;;;5057978;28;20049;-66
2024/01/12 06:49:11;;;;;;;4.55;1.90;;;9.10;93.40;;;;;;5031595;28;20045;-66
2024/01/12 06:51:37;;;;;;;7.75;2.20;;;9.10;93.40;;;;;;5030153;28;20514;-66
2024/01/12 06:54:03;;;;;;;6.32;2.35;;;9.20;93.40;;;;;;5046140;28;20128;-66
2024/01/12 06:56:29;;;;;;;4.88;2.20;;;9.20;93.40;;;;;;4997014;28;20084;-66
2024/01/12 06:58:55;;;;;;;4.95;2.30;;;;;;;;;;5013655;28;20085;-66
2024/01/12 07:01:21;;;;;;;5.32;2.42;;;;;;;;;;5015106;28;20049;-65
2024/01/12 07:03:47;;;;;;;4.63;2.00;;;;;;;;;;5014923;28;20408;-66
2024/01/12 07:06:14;;;;;;;8.57;2.53;;;;;;;;;;5012821;28;20041;-66
2024/01/12 07:08:40;;;;;;;5.78;2.20;;;;;;;;;;5013509;28;20048;-65
2024/01/12 07:11:07;;;;;;;6.43;2.67;;;;;;;;;;5014475;28;20042;-66
2024/01/12 07:13:34;;;;;;;8.18;2.78;;;;;;;;;;5014649;28;20046;-66
2024/01/12 07:16:00;;;;;;;5.53;2.17;;;;;;;;;;5041715;28;20045;-65
2024/01/12 07:18:26;;;;;;;6.35;2.47;;;;;;;;;;4996704;28;20073;-65
2024/01/12 07:20:55;;;;;;;7.13;2.70;;;;;;;;;;5045576;28;20050;-65
2024/01/12 07:23:21;;;;;;;5.55;2.33;;;;;;;;;;5014874;28;20053;-65
2024/01/12 07:25:47;;;;;;;5.88;2.20;;;;;;;;;;5014478;28;20053;-65
2024/01/12 07:28:13;;;;;;;6.30;2.60;;;;;;;;;;5012707;28;20049;-66
2024/01/12 07:30:40;;;;;;;5.60;2.35;;;;;;;;;;5013521;28;20494;-65
2024/01/12 07:33:07;;;;;;;6.10;2.47;;;;;;;;;;5014256;28;20050;-65
2024/01/12 07:35:33;;;;;;;5.43;2.33;;;;;;;;;;5014280;28;20046;-67
2024/01/12 07:37:59;;;;;;;6.10;2.30;;;;;;;;;;5045192;28;20081;-65
2024/01/12 07:40:25;;;;;;;7.53;2.72;;;;;;;;;;5014353;28;20075;-65
2024/01/12 07:42:51;;;;;;;5.72;2.53;;;;;;;;;;5046262;28;20054;-65
2024/01/12 07:45:17;;;;;;;6.85;2.53;;;;;;;;;;5012592;28;20053;-65
2024/01/12 07:47:43;;;;;;;8.30;2.60;;;;;;;;;;5014001;28;20049;-65
2024/01/12 07:50:09;;;;;;;8.55;2.85;;;9.30;93.40;;;;;;5013704;28;20050;-66
2024/01/12 07:52:35;;;;;;;6.70;2.28;;;9.10;93.30;;;;;;5045760;28;20130;-65
2024/01/12 07:55:02;;;;;;;7.88;2.35;;;9.20;93.40;;;;;;5013373;28;20045;-65
2024/01/12 07:57:28;;;;;;;7.45;2.13;;;;;;;;;;5044624;28;20046;-65
2024/01/12 07:59:56;;;;;;;6.63;2.40;;;;;;;;;;5013777;28;20037;-65
2024/01/12 08:02:23;;;;;;;8.35;2.63;;;;;;;;;;5012806;28;20061;-66
2024/01/12 08:04:49;;;;;;;11.52;3.28;;;9.10;93.40;;;;;;5012503;28;20053;-66
2024/01/12 08:07:15;;;;;;;8.70;2.92;;;;;;;;;;5013665;28;20100;-66
2024/01/12 08:09:42;;;;;;;8.60;2.42;;;;;;;;;;5013291;28;20083;-66
2024/01/12 08:12:08;;;;;;;9.30;2.67;;;;;;;;;;5012213;28;20515;-66
2024/01/12 08:14:34;;;;;;;9.45;2.78;;;;;;;;;;5028887;28;20180;-66
2024/01/12 08:17:00;;;;;;;7.32;2.65;;;9.30;93.40;;;;;;5013013;28;20479;-66
2024/01/12 08:19:26;;;;;;;7.35;2.58;;;;;;;;;;5012754;28;20085;-66
2024/01/12 08:21:52;;;;;;;7.75;2.70;;;;;;;;;;5012661;28;20054;-66
2024/01/12 08:24:18;;;;;;;7.75;2.42;;;;;;;;;;5012289;28;20056;-66
2024/01/12 08:26:45;;;;;;;8.05;2.40;;;9.40;92.00;;;;;;5013104;28;20054;-66
2024/01/12 08:29:11;;;;;;;7.00;2.20;;;;;;;;;;5044603;28;20046;-66
2024/01/12 08:31:37;;;;;;;7.18;2.72;;;;;;;;;;5043860;28;20156;-65
2024/01/12 08:34:03;;;;;;;7.28;2.53;;;;;;;;;;5012667;28;20042;-66
2024/01/12 08:36:30;;;;;;;7.93;3.05;;;;;;;;;;5015799;28;20052;-66
2024/01/12 08:38:56;;;;;;;6.10;2.40;;;;;;;;;;5015702;28;20048;-67
2024/01/12 08:41:22;;;;;;;10.82;2.20;;;;;;;;;;5016678;28;20057;-66
2024/01/12 08:43:48;;;;;;;9.82;2.20;;;;;;;;;;5012510;28;20500;-66
2024/01/12 08:46:14;;;;;;;6.20;2.15;;;9.50;93.50;;;;;;5027924;28;20058;-66
2024/01/12 08:48:41;;;;;;;8.98;2.65;;;;;;;;;;5010942;28;20053;-67
2024/01/12 08:51:07;;;;;;;5.95;2.10;;;;;;;;;;5044420;28;20484;-67
2024/01/12 08:53:34;;;;;;;5.22;2.40;;;;;;;;;;5011795;28;20514;-67
2024/01/12 08:56:00;;;;;;;7.28;2.20;;;9.50;93.50;;;;;;5013217;28;20073;-66
2024/01/12 08:58:26;;;;;;;8.30;2.22;;;;;;;;;;5012114;28;20479;-66
2024/01/12 09:00:52;;;;;;;5.93;2.25;;;9.40;93.40;;;;;;5012787;28;20084;-66
2024/01/12 09:03:18;;;;;;;7.75;2.60;;;;;;;;;;5012886;28;20096;-67
2024/01/12 09:05:44;;;;;;;8.93;2.63;;;;;;;;;;5012816;28;20092;-67
2024/01/12 09:08:11;;;;;;;6.72;2.30;;;;;;;;;;5012436;28;20053;-68
2024/01/12 09:10:37;;;;;;;8.25;2.35;;;;;;;;;;5013883;28;20046;-73
2024/01/12 09:13:03;;;;;;;9.32;2.60;;;9.50;93.40;;;;;;5012989;28;20053;-67
2024/01/12 09:15:29;;;;;;;8.40;2.22;;;;;;;;;;5012163;28;20041;-67
2024/01/12 09:17:55;;;;;;;10.57;2.45;;;;;;;;;;5011950;28;20521;-66
2024/01/12 09:20:21;;;;;;;10.85;2.33;;;;;;;;;;5010364;28;20606;-67
2024/01/12 09:22:48;;;;;;;11.05;2.25;;;9.60;91.80;;;;;;5012998;28;20426;-66
2024/01/12 09:25:14;;;;;;;7.55;2.10;;;;;;;;;;5012457;28;20042;-66
2024/01/12 09:27:40;;;;;;;8.57;2.50;;;;;;;;;;5010937;28;20073;-66
2024/01/12 09:30:07;;;;;;;9.57;1.90;;;;;;;;;;5012504;28;20108;-66
2024/01/12 09:32:33;;;;;;;8.18;1.92;;;;;;;;;;4991696;28;20456;-65
2024/01/12 09:34:59;;;;;;;6.47;2.30;;;;;;;;;;4996631;28;20496;-66
2024/01/12 09:37:25;;;;;;;5.75;2.15;;;;;;;;;;5028330;28;20054;-66
2024/01/12 09:39:51;;;;;;;7.38;2.50;;;;;;;;;;5012562;28;20045;-66
2024/01/12 09:42:17;;;;;;;9.32;2.97;;;;;;;;;;5016084;28;20080;-65
2024/01/12 09:44:46;;;;;;;9.45;2.72;;;9.50;91.80;;;;;;5031502;28;20491;-66
2024/01/12 09:47:13;;;;;;;11.80;2.75;;;;;;;;;;5047868;28;20068;-65
2024/01/12 09:49:39;;;;;;;6.97;2.38;;;;;;;;;;5047325;28;20121;-65
2024/01/12 09:52:07;;;;;;;7.72;2.30;;;9.40;93.40;;;;;;5030810;28;20050;-65
2024/01/12 09:54:35;;;;;;;8.10;2.20;;;9.50;92.10;;;;;;5015671;28;20046;-64
2024/01/12 09:57:01;;;;;;;6.65;2.08;;;9.50;93.40;;;;;;5015106;28;20037;-65
2024/01/12 09:59:27;;;;;;;10.45;2.22;;;9.60;93.40;;;;;;5013810;28;20399;-64
2024/01/12 10:01:53;;;;;;;20.50;3.47;;;;;;;;;;5014386;28;20085;-66
2024/01/12 10:04:19;;;;;;;19.40;3.13;;;;;;;;;;5047581;28;20054;-67
2024/01/12 10:06:45;;;;;;;69.53;6.78;;;;;;;;;;5014940;28;20466;-65
2024/01/12 10:09:11;;;;;;;65.25;5.90;;;9.60;93.40;;;;;;5015605;28;20049;-67
2024/01/12 10:11:37;;;;;;;36.22;4.45;;;;;;;;;;5015112;28;20038;-68
2024/01/12 10:14:04;;;;;;;42.45;4.57;;;;;;;;;;5014830;28;20074;-66
2024/01/12 10:16:30;;;;;;;29.83;4.45;;;9.60;93.50;;;;;;5015324;28;20045;-67
2024/01/12 10:18:59;;;;;;;19.92;4.28;;;;;;;;;;5046608;28;20044;-67
2024/01/12 10:21:25;;;;;;;39.10;5.60;;;;;;;;;;5013903;28;20042;-66
2024/01/12 10:24:07;;;;;;;26.85;4.75;;;9.60;91.80;;;;;;5014701;28;20117;-67
2024/01/12 10:26:33;;;;;;;1282.60;787.35;;;;;;;;;;5029054;28;20049;-64
2024/01/12 10:29:02;;;;;;;1072.97;724.92;;;9.60;91.70;;;;;;5014140;28;20052;-65
2024/01/12 10:31:29;;;;;;;1395.10;833.22;;;;;;;;;;5013916;28;20052;-66
2024/01/12 10:34:00;;;;;;;1881.95;927.22;;;9.60;92.00;;;;;;5014580;28;20057;-65
2024/01/12 10:36:27;;;;;;;1999.90;969.90;;;9.70;92.00;;;;;;5013389;28;20042;-64
2024/01/12 10:38:53;;;;;;;1999.90;999.90;;;;;;;;;;5013891;28;20045;-65
2024/01/12 10:41:21;;;;;;;1999.90;999.90;;;;;;;;;;5015079;28;20050;-65
2024/01/12 10:43:50;;;;;;;1999.90;995.80;;;;;;;;;;5014024;28;20551;-64
2024/01/12 10:46:40;;;;;;;1999.90;999.90;;;;;;;;;;5011766;28;20062;-65
2024/01/12 10:49:26;;;;;;;1999.90;966.55;;;9.90;92.50;;;;;;5006422;28;20058;-65
2024/01/12 10:51:58;;;;;;;1999.90;969.75;;;;;;;;;;5012620;28;20054;-65
2024/01/12 10:54:34;;;;;;;1999.90;964.37;;;10.10;92.40;;;;;;5012697;28;20136;-65
2024/01/12 10:57:01;;;;;;;1999.90;926.42;;;;;;;;;;5028531;28;20323;-65
2024/01/12 10:59:28;;;;;;;1847.57;869.03;;;;;;;;;;5014060;28;20053;-65
2024/01/12 11:01:54;;;;;;;1634.30;817.15;;;;;;;;;;5012623;28;20550;-65
2024/01/12 11:04:21;;;;;;;1407.75;754.08;;;;;;;;;;5014709;28;20073;-66
2024/01/12 11:06:48;;;;;;;1188.78;670.88;;;10.50;92.00;;;;;;5046175;28;20046;-65
2024/01/12 11:09:17;;;;;;;909.22;671.80;;;;;;;;;;5013345;28;20075;-65
2024/01/12 11:12:03;;;;;;;793.20;596.30;;;10.70;92.20;;;;;;5013635;28;20388;-66
2024/01/12 11:14:30;;;;;;;665.25;377.50;;;;;;;;;;5027679;28;20079;-63
2024/01/12 11:16:57;;;;;;;626.47;469.42;;;;;;;;;;4995936;28;20137;-65
2024/01/12 11:19:25;;;;;;;511.73;359.63;;;;;;;;;;5014196;28;20088;-65
2024/01/12 11:22:07;;;;;;;417.80;285.85;;;11.30;91.90;;;;;;5014812;28;20373;-66
2024/01/12 11:24:35;;;;;;;305.17;154.05;;;11.40;91.30;;;;;;5046639;28;20217;-65
2024/01/12 11:27:02;;;;;;;229.85;113.82;;;;;;;;;;5009472;28;20435;-65
2024/01/12 11:29:32;;;;;;;198.23;130.68;;;;;;;;;;5046019;28;20152;-65
2024/01/12 11:32:04;;;;;;;147.52;97.88;;;11.70;90.20;;;;;;5013125;28;20053;-65
2024/01/12 11:34:31;;;;;;;115.13;77.22;;;11.70;91.70;;;;;;5046031;28;20156;-64
2024/01/12 11:37:01;;;;;;;100.05;62.60;;;;;;;;;;5012206;28;20045;-66
2024/01/12 11:39:34;;;;;;;105.32;70.03;;;11.70;91.60;;;;;;5012393;28;20041;-65
2024/01/12 11:42:00;;;;;;;129.43;91.25;;;11.70;91.60;;;;;;5012841;28;20538;-65
2024/01/12 11:44:26;;;;;;;111.10;83.68;;;11.90;91.60;;;;;;5013377;28;20049;-65
2024/01/12 11:46:52;;;;;;;109.18;84.93;;;;;;;;;;5029075;28;20069;-65
2024/01/12 11:49:19;;;;;;;109.50;82.57;;;12.30;91.40;;;;;;5045880;28;20053;-66
2024/01/12 11:51:45;;;;;;;101.65;79.30;;;;;;;;;;5012766;28;20054;-65
2024/01/12 11:54:11;;;;;;;98.25;77.63;;;12.50;91.10;;;;;;5013753;28;20054;-66
2024/01/12 11:56:37;;;;;;;95.15;72.68;;;12.70;91.00;;;;;;5011709;28;20053;-65
2024/01/12 11:59:03;;;;;;;91.75;70.68;;;;;;;;;;5045577;28;20421;-66
2024/01/12 12:01:29;;;;;;;84.75;67.35;;;;;;;;;;5013635;28;20176;-66
2024/01/12 12:03:55;;;;;;;88.43;66.95;;;13.00;90.60;;;;;;5012845;28;20167;-68
2024/01/12 12:06:21;;;;;;;81.75;63.58;;;;;;;;;;5012137;28;20069;-66
2024/01/12 12:08:49;;;;;;;79.32;60.58;;;;;;;;;;5044785;28;20046;-65
2024/01/12 12:11:15;;;;;;;77.65;58.70;;;;;;;;;;5013646;28;20053;-67
2024/01/12 12:13:41;;;;;;;76.20;56.20;;;13.30;90.20;;;;;;5012854;28;20042;-66
2024/01/12 12:16:07;;;;;;;69.65;55.05;;;13.50;90.20;;;;;;5011958;28;20038;-66
2024/01/12 12:18:34;;;;;;;70.82;52.33;;;13.70;87.80;;;;;;5012707;28;20054;-66
2024/01/12 12:21:00;;;;;;;75.90;55.25;;;;;;;;;;5011759;28;20052;-66
2024/01/12 12:23:27;;;;;;;81.80;67.22;;;;;;;;;;5011674;28;20125;-66
2024/01/12 12:25:54;;;;;;;75.63;55.88;;;;;;;;;;5009694;28;20492;-67
2024/01/12 12:28:20;;;;;;;67.90;51.15;;;;;;;;;;5010714;28;20062;-66
2024/01/12 12:30:46;;;;;;;64.65;49.65;;;;;;;;;;4994084;28;20514;-65
2024/01/12 12:33:12;;;;;;;59.45;46.22;;;;;;;;;;5034974;28;20100;-69
2024/01/12 12:35:38;;;;;;;56.63;44.90;;;13.60;89.60;;;;;;5011127;28;20041;-68
2024/01/12 12:38:05;;;;;;;58.38;43.88;;;;;;;;;;5012356;28;20050;-66
2024/01/12 12:40:31;;;;;;;55.47;42.35;;;13.70;86.50;;;;;;4995461;28;20046;-66
2024/01/12 12:43:00;;;;;;;55.17;41.65;;;;;;;;;;4993822;28;20050;-66
2024/01/12 12:45:26;;;;;;;55.60;40.47;;;;;;;;;;5011757;28;20049;-68
2024/01/12 12:47:52;;;;;;;55.80;40.30;;;;;;;;;;5051115;28;20092;-66
2024/01/12 12:50:19;;;;;;;53.55;39.45;;;;;;;;;;5011763;28;20052;-66
2024/01/12 12:52:45;;;;;;;52.42;38.83;;;;;;;;;;5010853;28;20054;-66
2024/01/12 12:55:12;;;;;;;48.53;37.42;;;;;;;;;;5012785;28;20034;-66
2024/01/12 12:57:38;;;;;;;50.17;37.15;;;;;;;;;;5011464;28;20100;-66
2024/01/12 13:00:07;;;;;;;50.17;35.95;;;13.20;90.10;;;;;;5011499;28;20373;-66
2024/01/12 13:02:33;;;;;;;48.05;35.75;;;13.10;90.10;;;;;;4995033;28;20057;-66
2024/01/12 13:04:59;;;;;;;45.05;34.78;;;12.90;90.10;;;;;;5011829;28;20491;-65
2024/01/12 13:07:25;;;;;;;50.15;35.70;;;;;;;;;;4992147;28;20038;-66
2024/01/12 13:09:52;;;;;;;45.85;34.40;;;;;;;;;;5026505;28;20077;-65
2024/01/12 13:12:18;;;;;;;46.53;34.03;;;13.00;90.20;;;;;;5010513;28;20498;-65
2024/01/12 13:14:44;;;;;;;46.05;33.50;;;;;;;;;;5043581;28;20054;-65
2024/01/12 13:17:11;;;;;;;44.88;33.70;;;;;;;;;;5011621;28;20168;-64
2024/01/12 13:19:38;;;;;;;61.88;45.08;;;;;;;;;;5012219;28;20034;-64
2024/01/12 13:22:05;;;;;;;241.90;216.30;;;;;;;;;;5013018;28;20128;-65
2024/01/12 13:24:31;;;;;;;171.75;153.00;;;;;;;;;;5011315;28;20111;-65
2024/01/12 13:26:58;;;;;;;189.80;168.55;;;;;;;;;;4992911;28;20141;-67
2024/01/12 13:29:23;;;;;;;181.07;156.27;;;13.50;88.70;;;;;;5010607;28;20061;-65
2024/01/12 13:31:49;;;;;;;168.27;142.65;;;13.50;90.20;;;;;;5012427;28;20042;-66
2024/01/12 13:34:15;;;;;;;160.25;137.55;;;13.60;90.10;;;;;;5011166;28;20046;-65
2024/01/12 13:36:46;;;;;;;149.00;131.02;;;;;;;;;;5012092;28;20092;-66
2024/01/12 13:39:13;;;;;;;141.23;124.47;;;;;;;;;;5010223;28;20124;-66
2024/01/12 13:41:39;;;;;;;138.15;121.53;;;13.60;90.00;;;;;;5012336;28;20042;-66
2024/01/12 13:44:06;;;;;;;133.55;117.03;;;13.60;90.00;;;;;;5012406;28;20050;-65
2024/01/12 13:46:32;;;;;;;124.18;110.60;;;;;;;;;;5010190;28;20137;-64
2024/01/12 13:48:59;;;;;;;119.63;106.68;;;13.60;89.90;;;;;;5012224;28;20049;-64
2024/01/12 13:51:25;;;;;;;113.63;101.35;;;13.50;89.90;;;;;;5012397;28;20065;-64
2024/01/12 13:53:52;;;;;;;90.80;78.88;;;13.40;89.90;;;;;;5012446;28;20491;-65
2024/01/12 13:56:18;;;;;;;76.97;68.78;;;13.30;89.70;;;;;;5011033;28;20046;-64